createdAt,value
2022-08-03T00:02:18.760Z,0.77
2022-08-03T00:04:47.132Z,0.60
2022-08-03T00:07:16.514Z,0.60
2022-08-03T00:09:44.861Z,0.55
2022-08-03T00:12:12.843Z,0.75
2022-08-03T00:14:40.836Z,0.77
2022-08-03T00:17:09.870Z,0.57
2022-08-03T00:19:37.945Z,0.80
2022-08-03T00:22:06.018Z,0.82
2022-08-03T00:24:36.286Z,0.80
2022-08-03T00:27:04.384Z,0.60
2022-08-03T00:29:32.441Z,0.80
2022-08-03T00:32:00.745Z,0.80
2022-08-03T00:34:36.424Z,0.50
2022-08-03T00:37:18.258Z,0.75
2022-08-03T00:39:48.159Z,0.90
2022-08-03T00:42:17.087Z,0.70
2022-08-03T00:44:46.269Z,0.60
2022-08-03T00:47:14.247Z,0.80
2022-08-03T00:49:43.058Z,0.75
2022-08-03T00:52:12.361Z,0.70
2022-08-03T00:54:41.295Z,0.85
2022-08-03T00:57:10.746Z,0.68
2022-08-03T00:59:39.737Z,0.63
2022-08-03T01:02:07.772Z,0.70
2022-08-03T01:04:35.762Z,0.68
2022-08-03T01:07:12.549Z,0.90
2022-08-03T01:09:52.982Z,0.65
2022-08-03T01:12:29.941Z,0.75
2022-08-03T01:15:04.362Z,0.60
2022-08-03T01:17:38.010Z,0.63
2022-08-03T01:20:09.210Z,0.80
2022-08-03T01:23:06.996Z,0.80
2022-08-03T01:25:44.806Z,0.60
2022-08-03T01:28:28.124Z,0.50
2022-08-03T01:31:02.745Z,0.80
2022-08-03T01:33:37.481Z,0.77
2022-08-03T01:36:08.813Z,0.52
2022-08-03T01:38:43.094Z,0.90
2022-08-03T01:41:14.929Z,0.82
2022-08-03T01:44:26.680Z,0.52
2022-08-03T01:46:40.409Z,0.73
2022-08-03T01:49:16.277Z,0.77
2022-08-03T01:52:02.831Z,0.70
2022-08-03T01:54:35.876Z,0.90
2022-08-03T01:57:04.963Z,0.55
2022-08-03T01:59:35.960Z,0.73
2022-08-03T02:02:28.554Z,1.08
2022-08-03T02:04:57.640Z,0.68
2022-08-03T02:07:27.640Z,0.88
2022-08-03T02:09:56.865Z,0.80
2022-08-03T02:12:29.745Z,0.70
2022-08-03T02:15:00.074Z,0.95
2022-08-03T02:17:38.643Z,0.85
2022-08-03T02:20:12.120Z,0.80
2022-08-03T02:22:42.148Z,0.93
2022-08-03T02:25:11.581Z,0.70
2022-08-03T02:27:43.809Z,0.85
2022-08-03T02:30:14.454Z,0.80
2022-08-03T02:32:48.605Z,0.70
2022-08-03T02:35:19.691Z,0.77
2022-08-03T02:37:51.562Z,0.60
2022-08-03T02:40:21.776Z,0.75
2022-08-03T02:42:52.797Z,1.17
2022-08-03T02:45:21.598Z,0.70
2022-08-03T02:47:54.991Z,0.95
2022-08-03T02:50:25.061Z,0.75
2022-08-03T02:52:54.394Z,0.70
2022-08-03T02:55:23.676Z,0.70
2022-08-03T02:57:53.854Z,0.60
2022-08-03T03:00:28.500Z,0.70
2022-08-03T03:03:00.430Z,0.80
2022-08-03T03:05:52.635Z,0.73
2022-08-03T03:08:28.164Z,0.57
2022-08-03T03:10:57.502Z,0.70
2022-08-03T03:13:26.609Z,0.70
2022-08-03T03:15:57.742Z,0.80
2022-08-03T03:18:29.751Z,0.47
2022-08-03T03:20:59.111Z,0.75
2022-08-03T03:23:29.469Z,0.70
2022-08-03T03:25:59.026Z,1.00
2022-08-03T03:28:27.608Z,0.60
2022-08-03T03:30:55.600Z,0.73
2022-08-03T03:33:24.045Z,0.90
2022-08-03T03:35:54.666Z,0.82
2022-08-03T03:38:22.740Z,0.68
2022-08-03T03:40:50.778Z,0.82
2022-08-03T03:43:19.645Z,0.68
2022-08-03T03:45:48.839Z,0.63
2022-08-03T03:48:17.269Z,0.88
2022-08-03T03:50:45.932Z,0.82
2022-08-03T03:53:15.906Z,1.15
2022-08-03T03:56:02.086Z,0.60
2022-08-03T03:58:32.143Z,0.85
2022-08-03T04:01:00.434Z,0.90
2022-08-03T04:03:28.597Z,0.80
2022-08-03T04:06:13.540Z,0.70
2022-08-03T04:09:00.360Z,0.98
2022-08-03T04:11:33.254Z,0.73
2022-08-03T04:14:06.292Z,0.82
2022-08-03T04:16:43.196Z,0.63
2022-08-03T04:19:18.453Z,0.80
2022-08-03T04:21:53.074Z,0.70
2022-08-03T04:24:30.040Z,0.80
2022-08-03T04:27:00.450Z,1.00
2022-08-03T04:29:31.995Z,0.70
2022-08-03T04:32:03.067Z,0.80
2022-08-03T04:34:31.857Z,0.73
2022-08-03T04:37:02.478Z,0.60
2022-08-03T04:39:33.955Z,0.80
2022-08-03T04:42:08.561Z,0.82
2022-08-03T04:44:40.520Z,0.90
2022-08-03T04:47:09.271Z,0.90
2022-08-03T04:49:38.577Z,0.80
2022-08-03T04:52:10.143Z,0.85
2022-08-03T04:54:50.317Z,0.82
2022-08-03T04:57:23.305Z,0.63
2022-08-03T04:59:58.303Z,0.70
2022-08-03T05:02:31.165Z,1.00
2022-08-03T05:04:59.620Z,0.70
2022-08-03T05:07:35.786Z,0.88
2022-08-03T05:10:15.176Z,1.00
2022-08-03T05:12:45.698Z,0.88
2022-08-03T05:15:14.045Z,0.80
2022-08-03T05:17:42.824Z,0.82
2022-08-03T05:20:12.303Z,0.80
2022-08-03T05:22:40.287Z,0.70
2022-08-03T05:25:10.173Z,0.80
2022-08-03T05:27:47.029Z,1.13
2022-08-03T05:30:31.431Z,0.70
2022-08-03T05:33:03.877Z,0.70
2022-08-03T05:36:00.818Z,0.60
2022-08-03T05:38:23.690Z,0.82
2022-08-03T05:41:20.168Z,1.00
2022-08-03T05:43:46.617Z,1.02
2022-08-03T05:46:14.752Z,1.08
2022-08-03T05:48:43.022Z,0.73
2022-08-03T05:51:12.456Z,0.82
2022-08-03T05:53:41.305Z,0.60
2022-08-03T05:56:13.698Z,0.80
2022-08-03T05:58:44.435Z,0.88
2022-08-03T06:01:12.543Z,0.80
2022-08-03T06:03:40.559Z,0.60
2022-08-03T06:06:08.562Z,0.90
2022-08-03T06:08:36.861Z,0.98
2022-08-03T06:11:05.001Z,0.80
2022-08-03T06:13:34.597Z,1.00
2022-08-03T06:16:02.621Z,0.80
2022-08-03T06:18:30.584Z,0.70
2022-08-03T06:20:58.513Z,0.70
2022-08-03T06:23:53.075Z,0.70
2022-08-03T06:26:23.163Z,0.80
2022-08-03T06:28:54.194Z,0.90
2022-08-03T06:31:24.178Z,0.90
2022-08-03T06:34:30.882Z,0.80
2022-08-03T06:36:40.500Z,1.02
2022-08-03T06:39:08.591Z,0.90
2022-08-03T06:41:37.686Z,1.13
2022-08-03T06:44:14.281Z,0.98
2022-08-03T06:46:43.384Z,0.80
2022-08-03T06:49:11.505Z,0.80
2022-08-03T06:52:04.117Z,0.93
2022-08-03T06:54:27.549Z,0.95
2022-08-03T06:56:55.676Z,1.02
2022-08-03T07:00:09.789Z,0.77
2022-08-03T07:02:13.233Z,0.60
2022-08-03T07:04:47.271Z,0.80
2022-08-03T07:07:15.307Z,0.68
2022-08-03T07:09:43.269Z,0.90
2022-08-03T07:12:26.193Z,0.60
2022-08-03T07:15:00.246Z,0.77
2022-08-03T07:17:31.361Z,0.88
2022-08-03T07:19:59.583Z,0.70
2022-08-03T07:22:28.390Z,0.77
2022-08-03T07:24:56.531Z,1.00
2022-08-03T07:27:26.939Z,0.80
2022-08-03T07:29:56.652Z,0.60
2022-08-03T07:32:25.206Z,0.75
2022-08-03T07:34:55.807Z,0.80
2022-08-03T07:37:28.234Z,0.90
2022-08-03T07:39:56.357Z,0.70
2022-08-03T07:42:24.421Z,0.85
2022-08-03T07:44:52.388Z,0.70
2022-08-03T07:47:24.197Z,0.77
2022-08-03T07:49:52.590Z,0.80
2022-08-03T07:52:38.425Z,0.95
2022-08-03T07:55:07.490Z,0.90
2022-08-03T07:57:36.240Z,0.80
2022-08-03T08:00:06.451Z,1.20
2022-08-03T08:02:42.268Z,0.80
2022-08-03T08:05:11.252Z,0.90
2022-08-03T08:07:39.930Z,0.77
2022-08-03T08:10:10.087Z,0.95
2022-08-03T08:12:38.700Z,0.82
2022-08-03T08:15:08.467Z,0.70
2022-08-03T08:17:45.210Z,1.17
2022-08-03T08:20:18.192Z,1.10
2022-08-03T08:22:56.973Z,0.90
2022-08-03T08:25:25.213Z,0.88
2022-08-03T08:28:31.768Z,0.80
2022-08-03T08:30:41.669Z,1.13
2022-08-03T08:33:22.569Z,0.88
2022-08-03T08:35:53.085Z,1.02
2022-08-03T08:38:21.148Z,0.70
2022-08-03T08:40:49.920Z,1.00
2022-08-03T08:43:17.967Z,1.00
2022-08-03T08:45:48.469Z,0.80
2022-08-03T08:48:22.279Z,0.80
2022-08-03T08:50:53.497Z,1.05
2022-08-03T08:53:27.313Z,1.00
2022-08-03T08:56:00.690Z,0.80
2022-08-03T08:58:31.786Z,1.10
2022-08-03T09:01:00.220Z,0.85
2022-08-03T09:03:30.950Z,1.38
2022-08-03T09:06:02.269Z,0.82
2022-08-03T09:08:31.428Z,1.10
2022-08-03T09:10:59.417Z,1.10
2022-08-03T09:13:27.436Z,0.95
2022-08-03T09:16:12.535Z,0.90
2022-08-03T09:18:43.501Z,0.90
2022-08-03T09:21:30.626Z,0.80
2022-08-03T09:24:03.679Z,1.05
2022-08-03T09:26:34.281Z,0.70
2022-08-03T09:29:07.196Z,1.45
2022-08-03T09:31:43.906Z,1.13
2022-08-03T09:34:15.240Z,1.23
2022-08-03T09:36:45.677Z,0.90
2022-08-03T09:39:15.233Z,1.00
2022-08-03T09:41:45.860Z,1.10
2022-08-03T09:44:24.379Z,1.00
2022-08-03T09:46:56.396Z,1.00
2022-08-03T09:49:26.262Z,0.90
2022-08-03T09:52:30.269Z,0.80
2022-08-03T09:54:44.135Z,0.90
2022-08-03T09:57:23.167Z,0.77
2022-08-03T09:59:58.788Z,1.20
2022-08-03T10:02:41.136Z,1.73
2022-08-03T10:05:19.606Z,1.17
2022-08-03T10:07:49.750Z,0.88
2022-08-03T10:10:31.142Z,0.90
2022-08-03T10:13:01.289Z,1.25
2022-08-03T10:16:21.763Z,0.90
2022-08-03T10:18:18.151Z,1.08
2022-08-03T10:20:52.811Z,1.00
2022-08-03T10:23:22.591Z,0.90
2022-08-03T10:25:55.901Z,1.13
2022-08-03T10:28:24.882Z,1.17
2022-08-03T10:30:55.228Z,0.80
2022-08-03T10:33:50.310Z,0.90
2022-08-03T10:36:18.805Z,0.90
2022-08-03T10:38:52.670Z,0.90
2022-08-03T10:41:22.443Z,0.90
2022-08-03T10:43:57.296Z,0.93
2022-08-03T10:46:27.551Z,1.27
2022-08-03T10:48:57.620Z,0.90
2022-08-03T10:51:32.151Z,1.10
2022-08-03T10:54:01.740Z,0.75
2022-08-03T10:56:57.831Z,1.20
2022-08-03T10:59:58.753Z,1.35
2022-08-03T11:02:59.869Z,1.70
2022-08-03T11:05:29.339Z,1.13
2022-08-03T11:08:30.159Z,1.20
2022-08-03T11:11:00.703Z,0.90
2022-08-03T11:13:31.927Z,1.10
2022-08-03T11:16:05.880Z,1.30
2022-08-03T11:18:35.240Z,1.10
2022-08-03T11:21:04.089Z,1.25
2022-08-03T11:24:05.336Z,1.23
2022-08-03T11:26:32.947Z,1.20
2022-08-03T11:29:29.021Z,1.15
2022-08-03T11:31:57.111Z,1.10
2022-08-03T11:34:25.471Z,1.33
2022-08-03T11:37:31.491Z,1.27
2022-08-03T11:40:03.104Z,1.00
2022-08-03T11:42:41.371Z,1.50
2022-08-03T11:45:11.019Z,1.20
2022-08-03T11:47:50.706Z,1.10
2022-08-03T11:50:21.503Z,1.25
2022-08-03T11:52:50.707Z,1.10
2022-08-03T11:55:22.002Z,1.35
2022-08-03T11:59:10.592Z,1.05
2022-08-03T12:00:38.743Z,1.23
2022-08-03T12:03:08.721Z,1.23
2022-08-03T12:05:42.221Z,1.20
2022-08-03T12:08:31.071Z,1.30
2022-08-03T12:11:03.124Z,1.10
2022-08-03T12:14:45.747Z,1.10
2022-08-03T12:16:28.757Z,1.27
2022-08-03T12:18:58.213Z,1.30
2022-08-03T12:21:26.723Z,1.13
2022-08-03T12:24:00.410Z,1.20
2022-08-03T12:26:31.236Z,1.10
2022-08-03T12:28:59.265Z,1.45
2022-08-03T12:31:27.350Z,1.40
2022-08-03T12:34:04.059Z,1.13
2022-08-03T12:36:35.335Z,1.15
2022-08-03T12:39:05.642Z,0.95
2022-08-03T12:41:36.636Z,1.30
2022-08-03T12:44:06.408Z,1.20
2022-08-03T12:46:36.092Z,1.00
2022-08-03T12:49:09.255Z,1.50
2022-08-03T12:51:39.186Z,1.02
2022-08-03T12:54:07.650Z,1.27
2022-08-03T12:56:37.311Z,1.00
2022-08-03T12:59:32.303Z,1.10
2022-08-03T13:02:09.339Z,0.95
2022-08-03T13:04:38.052Z,1.20
2022-08-03T13:07:12.670Z,1.30
2022-08-03T13:09:44.282Z,1.27
2022-08-03T13:12:14.985Z,1.40
2022-08-03T13:14:44.202Z,1.10
2022-08-03T13:17:12.304Z,1.35
2022-08-03T13:19:41.963Z,1.10
2022-08-03T13:22:13.733Z,1.30
2022-08-03T13:24:42.524Z,1.02
2022-08-03T13:28:02.148Z,1.33
2022-08-03T13:30:00.136Z,1.15
2022-08-03T13:32:28.222Z,1.08
2022-08-03T13:34:56.197Z,1.15
2022-08-03T13:37:24.542Z,1.13
2022-08-03T13:40:00.179Z,1.45
2022-08-03T13:42:31.476Z,1.42
2022-08-03T13:45:01.653Z,1.48
2022-08-03T13:47:30.092Z,1.13
2022-08-03T13:50:01.646Z,1.10
2022-08-03T13:52:34.946Z,1.40
2022-08-03T13:55:05.190Z,1.25
2022-08-03T13:58:06.132Z,1.10
2022-08-03T14:00:28.956Z,1.38
2022-08-03T14:03:05.361Z,1.63
2022-08-03T14:05:38.877Z,1.25
2022-08-03T14:08:08.077Z,1.70
2022-08-03T14:10:37.479Z,1.25
2022-08-03T14:13:06.646Z,1.75
2022-08-03T14:15:38.315Z,1.30
2022-08-03T14:18:12.839Z,1.23
2022-08-03T14:20:49.071Z,1.38
2022-08-03T14:23:18.537Z,1.30
2022-08-03T14:25:52.338Z,1.40
2022-08-03T14:28:22.781Z,1.40
2022-08-03T14:30:53.692Z,1.15
2022-08-03T14:33:21.842Z,1.20
2022-08-03T14:35:50.327Z,1.30
2022-08-03T14:38:19.013Z,1.20
2022-08-03T14:40:47.284Z,1.40
2022-08-03T14:43:17.853Z,1.50
2022-08-03T14:45:45.872Z,1.60
2022-08-03T14:50:29.395Z,0.90
2022-08-03T14:51:03.257Z,1.48
2022-08-03T14:53:31.221Z,1.38
2022-08-03T14:55:59.199Z,1.67
2022-08-03T14:58:27.298Z,1.85
2022-08-03T15:00:56.544Z,1.48
2022-08-03T15:03:26.584Z,2.22
2022-08-03T15:05:57.144Z,1.70
2022-08-03T15:08:26.957Z,1.70
2022-08-03T15:10:55.555Z,1.85
2022-08-03T15:13:25.320Z,1.75
2022-08-03T15:15:53.693Z,2.05
2022-08-03T15:18:21.682Z,2.10
2022-08-03T15:20:51.168Z,1.88
2022-08-03T15:23:20.037Z,2.00
2022-08-03T15:26:03.612Z,1.90
2022-08-03T15:28:37.542Z,2.00
2022-08-03T15:31:06.316Z,2.20
2022-08-03T15:33:35.180Z,2.10
2022-08-03T15:36:05.633Z,1.77
2022-08-03T15:38:33.677Z,1.95
2022-08-03T15:41:01.648Z,2.20
2022-08-03T15:43:29.696Z,1.67
2022-08-03T15:46:26.932Z,1.90
2022-08-03T15:48:46.973Z,1.77
2022-08-03T15:51:16.560Z,1.80
2022-08-03T15:53:44.533Z,1.77
2022-08-03T15:56:18.167Z,2.13
2022-08-03T15:59:09.395Z,1.67
2022-08-03T16:01:35.683Z,1.80
2022-08-03T16:04:03.716Z,1.80
2022-08-03T16:06:35.361Z,1.60
2022-08-03T16:09:05.875Z,1.77
2022-08-03T16:11:52.495Z,1.60
2022-08-03T16:14:32.224Z,1.60
2022-08-03T16:17:04.226Z,1.55
2022-08-03T16:19:32.309Z,1.65
2022-08-03T16:22:02.050Z,1.90
2022-08-03T16:24:31.837Z,2.20
2022-08-03T16:27:00.774Z,2.15
2022-08-03T16:29:29.547Z,1.90
2022-08-03T16:31:57.668Z,2.20
2022-08-03T16:34:25.700Z,1.83
2022-08-03T16:36:54.643Z,1.80
2022-08-03T16:39:24.022Z,2.60
2022-08-03T16:41:54.490Z,1.67
2022-08-03T16:44:31.230Z,1.70
2022-08-03T16:46:59.664Z,2.22
2022-08-03T16:49:55.757Z,1.60
2022-08-03T16:52:16.630Z,2.33
2022-08-03T16:54:50.625Z,1.98
2022-08-03T16:57:59.343Z,2.00
2022-08-03T17:00:12.261Z,1.88
2022-08-03T17:03:01.369Z,2.30
2022-08-03T17:05:47.450Z,2.05
2022-08-03T17:08:16.282Z,2.20
2022-08-03T17:10:48.440Z,1.92
2022-08-03T17:13:21.777Z,2.10
2022-08-03T17:15:57.922Z,1.92
2022-08-03T17:18:29.853Z,2.33
2022-08-03T17:20:59.489Z,1.98
2022-08-03T17:23:39.605Z,1.55
2022-08-03T17:26:21.204Z,2.15
2022-08-03T17:28:57.512Z,1.80
2022-08-03T17:31:32.285Z,2.30
2022-08-03T17:34:15.121Z,1.98
2022-08-03T17:37:03.772Z,2.30
2022-08-03T17:39:56.997Z,2.10
2022-08-03T17:42:39.100Z,2.00
2022-08-03T17:45:08.461Z,2.30
2022-08-03T17:47:43.898Z,2.67
2022-08-03T17:50:24.364Z,2.05
2022-08-03T17:53:06.806Z,2.20
2022-08-03T17:55:56.582Z,2.25
2022-08-03T18:02:11.596Z,2.28
2022-08-03T18:05:00.740Z,2.50
2022-08-03T18:07:41.115Z,2.40
2022-08-03T18:13:04.064Z,2.17
2022-08-03T18:15:44.399Z,2.10
2022-08-03T18:18:15.837Z,2.10
2022-08-03T18:20:45.502Z,1.80
2022-08-03T18:26:04.842Z,1.90
2022-08-03T18:28:34.985Z,2.10
2022-08-03T18:31:06.863Z,1.98
2022-08-03T18:34:17.023Z,1.80
2022-08-03T18:36:30.280Z,2.00
2022-08-03T18:39:16.641Z,2.05
2022-08-03T18:41:47.786Z,1.63
2022-08-03T18:44:46.540Z,1.90
2022-08-03T18:47:50.717Z,1.75
2022-08-03T18:50:24.599Z,2.45
2022-08-03T18:52:58.969Z,2.55
2022-08-03T18:55:33.407Z,2.00
2022-08-03T18:58:17.899Z,1.95
2022-08-03T19:00:54.275Z,2.47
2022-08-03T19:03:42.713Z,1.80
2022-08-03T19:06:19.743Z,1.90
2022-08-03T19:08:55.587Z,1.88
2022-08-03T19:11:28.232Z,2.15
2022-08-03T19:13:59.272Z,1.83
2022-08-03T19:16:34.208Z,2.00
2022-08-03T19:19:03.906Z,2.25
2022-08-03T19:21:36.093Z,2.72
2022-08-03T19:24:09.718Z,2.15
2022-08-03T19:26:39.960Z,2.28
2022-08-03T19:29:14.807Z,2.40
2022-08-03T19:31:54.448Z,1.85
2022-08-03T19:34:30.761Z,2.03
2022-08-03T19:36:59.501Z,2.00
2022-08-03T19:39:28.030Z,2.58
2022-08-03T19:42:08.179Z,1.80
2022-08-03T19:44:41.381Z,1.80
2022-08-03T19:50:05.891Z,2.63
2022-08-03T19:52:42.346Z,2.35
2022-08-03T19:55:12.827Z,2.45
2022-08-03T19:57:43.648Z,2.60
2022-08-03T20:00:19.471Z,2.30
2022-08-03T20:02:47.815Z,2.53
2022-08-03T20:05:20.436Z,2.60
2022-08-03T20:07:48.713Z,2.20
2022-08-03T20:10:17.784Z,2.72
2022-08-03T20:12:47.276Z,2.25
2022-08-03T20:15:18.370Z,2.10
2022-08-03T20:17:59.487Z,2.17
2022-08-03T20:20:30.959Z,2.67
2022-08-03T20:23:01.178Z,2.30
2022-08-03T20:25:38.719Z,1.98
2022-08-03T20:28:14.045Z,2.45
2022-08-03T20:30:46.315Z,2.28
2022-08-03T20:33:18.682Z,2.25
2022-08-03T20:35:49.854Z,2.33
2022-08-03T20:38:19.915Z,2.50
2022-08-03T20:40:56.279Z,2.17
2022-08-03T20:43:27.437Z,2.90
2022-08-03T20:46:00.142Z,3.40
2022-08-03T20:48:48.577Z,3.17
2022-08-03T20:51:48.996Z,3.53
2022-08-03T20:54:22.792Z,3.95
2022-08-03T20:56:56.398Z,4.35
2022-08-03T20:59:28.570Z,4.63
2022-08-03T21:01:58.527Z,3.95
2022-08-03T21:04:26.513Z,4.63
2022-08-03T21:07:01.163Z,3.95
2022-08-03T21:09:41.081Z,4.25
2022-08-03T21:12:17.844Z,4.55
2022-08-03T21:12:57.105Z,2.03
2022-08-03T21:12:57.899Z,1.92
2022-08-03T21:13:02.898Z,2.13
2022-08-03T21:13:05.447Z,2.42
2022-08-03T21:14:53.478Z,4.57
2022-08-03T21:17:39.907Z,3.95
2022-08-03T21:20:11.263Z,3.55
2022-08-03T21:22:45.173Z,3.78
2022-08-03T21:25:16.089Z,3.95
2022-08-03T21:27:44.312Z,3.80
2022-08-03T21:30:13.037Z,4.25
2022-08-03T21:32:45.448Z,4.03
2022-08-03T21:35:14.571Z,3.85
2022-08-03T21:37:44.858Z,3.78
2022-08-03T21:40:15.077Z,3.53
2022-08-03T21:42:45.890Z,3.28
2022-08-03T21:45:17.446Z,3.30
2022-08-03T21:47:47.015Z,4.22
2022-08-03T21:50:15.223Z,3.42
2022-08-03T21:52:46.729Z,3.88
2022-08-03T21:55:18.666Z,3.30
2022-08-03T21:57:54.513Z,3.13
2022-08-03T22:00:24.578Z,3.70
2022-08-03T22:02:55.337Z,3.17
2022-08-03T22:05:42.533Z,3.42
2022-08-03T22:08:14.562Z,3.53
2022-08-03T22:10:45.429Z,3.45
2022-08-03T22:13:14.109Z,3.08
2022-08-03T22:15:42.252Z,2.95
2022-08-03T22:18:10.657Z,2.97
2022-08-03T22:20:38.666Z,3.30
2022-08-03T22:23:08.636Z,3.15
2022-08-03T22:25:40.662Z,2.83
2022-08-03T22:28:11.046Z,3.42
2022-08-03T22:30:40.867Z,3.35
2022-08-03T22:33:12.015Z,2.83
2022-08-03T22:35:48.039Z,2.70
2022-08-03T22:38:17.472Z,3.25
2022-08-03T22:40:51.061Z,2.83
2022-08-03T22:43:22.708Z,2.50
2022-08-03T22:46:09.528Z,2.85
2022-08-03T22:48:41.607Z,2.78
2022-08-03T22:51:10.596Z,3.10
2022-08-03T22:53:40.352Z,2.80
2022-08-03T22:56:09.886Z,2.53
2022-08-03T22:58:37.859Z,2.88
2022-08-03T23:01:08.300Z,3.28
2022-08-03T23:04:00.775Z,2.22
2022-08-03T23:06:34.607Z,2.72
2022-08-03T23:09:05.757Z,3.60
2022-08-03T23:11:37.916Z,3.00
2022-08-03T23:14:12.749Z,3.30
2022-08-03T23:16:42.482Z,2.78
2022-08-03T23:19:16.674Z,2.90
2022-08-03T23:22:00.657Z,3.20
2022-08-03T23:24:34.483Z,2.88
2022-08-03T23:27:06.187Z,2.70
2022-08-03T23:29:36.510Z,2.97
2022-08-03T23:32:06.061Z,2.75
2022-08-03T23:34:51.709Z,2.95
2022-08-03T23:37:20.938Z,2.95
2022-08-03T23:39:50.118Z,2.67
2022-08-03T23:42:21.338Z,3.25
2022-08-03T23:44:55.096Z,2.90
2022-08-03T23:47:23.993Z,2.80
2022-08-03T23:49:52.250Z,2.70
2022-08-03T23:52:29.035Z,2.92
2022-08-03T23:55:11.541Z,3.03
2022-08-03T23:57:51.921Z,2.90
